createdAt,value
2022-08-21T00:01:54.198Z,9.77
2022-08-21T00:04:22.630Z,10.45
2022-08-21T00:06:52.407Z,9.25
2022-08-21T00:09:20.754Z,9.85
2022-08-21T00:11:48.993Z,12.02
2022-08-21T00:14:17.557Z,10.93
2022-08-21T00:16:45.077Z,11.90
2022-08-21T00:19:12.643Z,10.85
2022-08-21T00:21:40.268Z,9.90
2022-08-21T00:24:12.459Z,9.48
2022-08-21T00:26:40.368Z,10.70
2022-08-21T00:29:07.872Z,10.68
2022-08-21T00:31:35.358Z,11.75
2022-08-21T00:34:03.222Z,9.63
2022-08-21T00:36:31.265Z,11.43
2022-08-21T00:38:58.779Z,10.05
2022-08-21T00:41:38.399Z,8.57
2022-08-21T00:44:10.818Z,8.35
2022-08-21T00:46:39.735Z,9.45
2022-08-21T00:49:08.660Z,9.55
2022-08-21T00:52:11.206Z,8.82
2022-08-21T00:54:45.839Z,7.00
2022-08-21T00:57:18.658Z,7.50
2022-08-21T00:59:51.021Z,7.88
2022-08-21T01:02:19.531Z,7.03
2022-08-21T01:04:47.808Z,7.72
2022-08-21T01:07:15.494Z,7.35
2022-08-21T01:09:43.507Z,8.75
2022-08-21T01:12:12.845Z,7.60
2022-08-21T01:14:43.969Z,8.68
2022-08-21T01:17:14.978Z,8.57
2022-08-21T01:19:42.960Z,8.93
2022-08-21T01:22:11.180Z,8.60
2022-08-21T01:24:38.854Z,9.30
2022-08-21T01:27:06.910Z,9.65
2022-08-21T01:29:57.847Z,8.70
2022-08-21T01:32:26.524Z,9.35
2022-08-21T01:34:54.454Z,9.10
2022-08-21T01:37:23.603Z,9.63
2022-08-21T01:39:51.189Z,9.57
2022-08-21T01:42:19.194Z,9.13
2022-08-21T01:44:46.723Z,10.07
2022-08-21T01:47:16.313Z,10.25
2022-08-21T01:49:46.513Z,9.55
2022-08-21T01:52:14.558Z,9.25
2022-08-21T01:54:42.970Z,11.10
2022-08-21T01:57:10.991Z,9.07
2022-08-21T01:59:38.675Z,9.57
2022-08-21T02:02:06.530Z,9.48
2022-08-21T02:04:34.527Z,9.55
2022-08-21T02:07:02.916Z,9.18
2022-08-21T02:09:30.415Z,9.40
2022-08-21T02:11:58.806Z,8.40
2022-08-21T02:14:32.313Z,8.77
2022-08-21T02:17:08.847Z,8.93
2022-08-21T02:19:40.273Z,9.73
2022-08-21T02:22:10.672Z,10.20
2022-08-21T02:24:54.091Z,9.48
2022-08-21T02:27:26.768Z,9.05
2022-08-21T02:29:57.480Z,8.18
2022-08-21T02:32:25.533Z,8.05
2022-08-21T02:34:53.504Z,8.00
2022-08-21T02:37:21.113Z,10.77
2022-08-21T02:39:48.509Z,7.32
2022-08-21T02:42:16.163Z,7.82
2022-08-21T02:44:43.632Z,9.25
2022-08-21T02:47:11.094Z,7.20
2022-08-21T02:49:38.516Z,7.63
2022-08-21T02:52:07.153Z,6.20
2022-08-21T02:54:34.683Z,6.15
2022-08-21T02:57:02.157Z,6.72
2022-08-21T02:59:29.664Z,6.30
2022-08-21T03:01:57.407Z,6.28
2022-08-21T03:04:24.866Z,6.07
2022-08-21T03:06:52.420Z,7.88
2022-08-21T03:09:19.845Z,6.28
2022-08-21T03:11:47.909Z,6.38
2022-08-21T03:14:15.304Z,6.65
2022-08-21T03:16:43.733Z,6.07
2022-08-21T03:19:11.330Z,5.72
2022-08-21T03:21:38.993Z,7.38
2022-08-21T03:24:08.087Z,5.03
2022-08-21T03:26:35.663Z,4.53
2022-08-21T03:29:03.423Z,5.38
2022-08-21T03:31:32.757Z,4.07
2022-08-21T03:34:00.431Z,4.05
2022-08-21T03:36:27.949Z,4.90
2022-08-21T03:38:55.453Z,5.93
2022-08-21T03:41:23.102Z,3.80
2022-08-21T03:43:50.656Z,4.32
2022-08-21T03:46:18.076Z,4.90
2022-08-21T03:48:45.720Z,4.78
2022-08-21T03:51:13.552Z,5.28
2022-08-21T03:53:41.134Z,3.42
2022-08-21T03:56:09.034Z,5.10
2022-08-21T03:58:36.625Z,4.97
2022-08-21T04:01:07.447Z,5.53
2022-08-21T04:03:37.302Z,3.42
2022-08-21T04:06:06.128Z,2.92
2022-08-21T04:08:33.616Z,3.92
2022-08-21T04:11:01.755Z,3.38
2022-08-21T04:13:29.365Z,3.83
2022-08-21T04:15:58.144Z,3.03
2022-08-21T04:18:25.958Z,3.20
2022-08-21T04:20:55.266Z,2.95
2022-08-21T04:23:24.723Z,4.00
2022-08-21T04:25:54.219Z,4.47
2022-08-21T04:28:23.312Z,2.88
2022-08-21T04:30:53.221Z,3.67
2022-08-21T04:33:22.413Z,4.95
2022-08-21T04:35:51.365Z,4.22
2022-08-21T04:38:19.146Z,2.90
2022-08-21T04:40:46.726Z,4.13
2022-08-21T04:43:14.263Z,3.28
2022-08-21T04:45:45.626Z,3.83
2022-08-21T04:48:14.707Z,4.97
2022-08-21T04:51:00.917Z,3.28
2022-08-21T04:53:35.287Z,2.80
2022-08-21T04:56:14.151Z,3.33
2022-08-21T04:58:43.649Z,3.75
2022-08-21T05:01:17.280Z,4.72
2022-08-21T05:03:45.652Z,4.93
2022-08-21T05:06:16.445Z,5.68
2022-08-21T05:08:46.208Z,3.85
2022-08-21T05:11:14.505Z,5.05
2022-08-21T05:13:44.627Z,4.35
2022-08-21T05:16:12.119Z,4.90
2022-08-21T05:18:39.979Z,3.53
2022-08-21T05:21:07.533Z,3.95
2022-08-21T05:23:35.014Z,3.53
2022-08-21T05:26:02.899Z,3.63
2022-08-21T05:28:30.419Z,6.20
2022-08-21T05:30:57.900Z,4.28
2022-08-21T05:33:25.630Z,4.13
2022-08-21T05:35:56.974Z,3.42
2022-08-21T05:38:29.614Z,3.60
2022-08-21T05:40:57.153Z,3.78
2022-08-21T05:43:24.729Z,3.65
2022-08-21T05:45:52.150Z,3.80
2022-08-21T05:48:22.770Z,4.68
2022-08-21T05:50:51.188Z,4.85
2022-08-21T05:53:20.718Z,4.30
2022-08-21T05:55:48.532Z,4.65
2022-08-21T05:58:18.720Z,3.95
2022-08-21T06:00:48.651Z,4.95
2022-08-21T06:03:21.190Z,5.03
2022-08-21T06:05:49.125Z,4.50
2022-08-21T06:08:18.067Z,5.82
2022-08-21T06:10:46.194Z,5.97
2022-08-21T06:13:15.143Z,7.00
2022-08-21T06:15:42.992Z,5.38
2022-08-21T06:18:10.957Z,5.25
2022-08-21T06:20:39.138Z,4.47
2022-08-21T06:23:07.009Z,3.38
2022-08-21T06:25:34.985Z,5.13
2022-08-21T06:28:05.193Z,4.65
2022-08-21T06:30:33.808Z,4.97
2022-08-21T06:33:01.449Z,5.25
2022-08-21T06:35:30.246Z,3.92
2022-08-21T06:37:58.722Z,4.55
2022-08-21T06:40:30.360Z,4.63
2022-08-21T06:43:07.321Z,6.65
2022-08-21T06:45:34.916Z,5.03
2022-08-21T06:48:02.605Z,6.00
2022-08-21T06:50:31.272Z,4.95
2022-08-21T06:53:13.661Z,4.40
2022-08-21T06:55:41.752Z,4.78
2022-08-21T06:58:10.808Z,4.55
2022-08-21T07:00:41.795Z,5.05
2022-08-21T07:03:16.974Z,3.70
2022-08-21T07:05:44.415Z,5.43
2022-08-21T07:08:11.921Z,4.57
2022-08-21T07:10:39.509Z,4.75
2022-08-21T07:13:07.333Z,4.05
2022-08-21T07:15:35.320Z,5.07
2022-08-21T07:18:04.023Z,4.93
2022-08-21T07:20:32.334Z,3.53
2022-08-21T07:23:03.555Z,5.65
2022-08-21T07:25:31.084Z,4.53
2022-08-21T07:27:58.562Z,4.05
2022-08-21T07:30:26.093Z,4.50
2022-08-21T07:32:53.672Z,5.15
2022-08-21T07:35:21.714Z,4.35
2022-08-21T07:37:49.253Z,4.03
2022-08-21T07:40:18.442Z,5.38
2022-08-21T07:42:48.546Z,3.53
2022-08-21T07:45:16.976Z,4.32
2022-08-21T07:47:44.759Z,4.78
2022-08-21T07:50:13.743Z,5.57
2022-08-21T07:52:41.898Z,5.10
2022-08-21T07:55:12.114Z,3.90
2022-08-21T07:57:40.006Z,4.82
2022-08-21T08:00:10.995Z,4.10
2022-08-21T08:02:42.043Z,4.65
2022-08-21T08:05:12.504Z,5.03
2022-08-21T08:07:40.548Z,3.58
2022-08-21T08:10:10.077Z,5.30
2022-08-21T08:12:40.621Z,5.28
2022-08-21T08:15:11.746Z,4.88
2022-08-21T08:17:39.922Z,4.17
2022-08-21T08:20:09.244Z,5.78
2022-08-21T08:22:38.892Z,5.40
2022-08-21T08:25:09.579Z,5.05
2022-08-21T08:27:38.716Z,6.03
2022-08-21T08:30:08.620Z,4.50
2022-08-21T08:32:36.299Z,6.28
2022-08-21T08:35:05.128Z,4.63
2022-08-21T08:37:34.775Z,5.60
2022-08-21T08:40:04.632Z,6.47
2022-08-21T08:42:36.128Z,6.38
2022-08-21T08:45:11.866Z,6.65
2022-08-21T08:47:45.889Z,8.00
2022-08-21T08:50:38.354Z,5.55
2022-08-21T08:53:09.920Z,7.60
2022-08-21T08:55:43.877Z,5.60
2022-08-21T08:58:23.655Z,4.95
2022-08-21T09:00:55.274Z,6.55
2022-08-21T09:03:25.145Z,4.70
2022-08-21T09:06:15.257Z,5.75
2022-08-21T09:09:01.022Z,5.22
2022-08-21T09:11:54.374Z,5.25
2022-08-21T09:14:59.398Z,5.25
2022-08-21T09:17:45.502Z,6.18
2022-08-21T09:20:30.279Z,6.80
2022-08-21T09:23:16.670Z,6.32
2022-08-21T09:26:00.608Z,5.40
2022-08-21T09:28:28.244Z,5.53
2022-08-21T09:30:57.363Z,5.40
2022-08-21T09:33:24.906Z,5.75
2022-08-21T09:35:54.683Z,5.63
2022-08-21T09:38:33.251Z,6.53
2022-08-21T09:41:07.820Z,5.10
2022-08-21T09:43:36.146Z,5.45
2022-08-21T09:46:25.196Z,6.55
2022-08-21T09:48:59.684Z,5.47
2022-08-21T09:51:31.294Z,6.13
2022-08-21T09:54:08.054Z,6.65
2022-08-21T09:56:58.047Z,8.35
2022-08-21T09:59:36.533Z,7.20
2022-08-21T10:02:27.448Z,6.28
2022-08-21T10:05:01.154Z,7.53
2022-08-21T10:07:33.825Z,6.13
2022-08-21T10:10:15.299Z,5.85
2022-08-21T10:12:54.975Z,5.47
2022-08-21T10:15:59.838Z,5.75
2022-08-21T10:18:53.510Z,6.80
2022-08-21T10:21:26.642Z,6.25
2022-08-21T10:24:34.891Z,6.25
2022-08-21T10:27:30.099Z,8.00
2022-08-21T10:30:00.939Z,6.47
2022-08-21T10:32:55.637Z,6.78
2022-08-21T10:35:31.993Z,6.32
2022-08-21T10:38:39.239Z,6.00
2022-08-21T10:41:11.932Z,5.25
2022-08-21T10:43:51.511Z,6.43
2022-08-21T10:46:31.095Z,5.38
2022-08-21T10:49:20.667Z,7.75
2022-08-21T10:52:03.362Z,6.32
2022-08-21T10:55:24.799Z,6.60
2022-08-21T10:57:59.808Z,6.20
2022-08-21T11:00:44.897Z,5.70
2022-08-21T11:03:18.610Z,5.65
2022-08-21T11:05:54.765Z,6.38
2022-08-21T11:08:43.124Z,8.32
2022-08-21T11:11:35.863Z,6.30
2022-08-21T11:14:12.513Z,6.40
2022-08-21T11:16:47.288Z,6.47
2022-08-21T11:19:14.638Z,6.47
2022-08-21T11:21:50.413Z,7.72
2022-08-21T11:24:42.735Z,6.10
2022-08-21T11:27:45.317Z,7.90
2022-08-21T11:30:14.358Z,9.25
2022-08-21T11:33:17.764Z,7.72
2022-08-21T11:35:49.154Z,7.88
2022-08-21T11:38:41.407Z,7.90
2022-08-21T11:41:27.504Z,7.03
2022-08-21T11:44:15.543Z,9.25
2022-08-21T11:46:52.360Z,7.85
2022-08-21T11:49:47.526Z,6.80
2022-08-21T11:52:30.379Z,5.47
2022-08-21T11:55:01.473Z,7.40
2022-08-21T11:57:55.290Z,6.95
2022-08-21T12:00:28.174Z,7.28
2022-08-21T12:03:00.292Z,7.78
2022-08-21T12:05:36.378Z,6.47
2022-08-21T12:08:07.220Z,6.53
2022-08-21T12:10:41.560Z,6.55
2022-08-21T12:13:23.874Z,7.80
2022-08-21T12:16:16.008Z,8.07
2022-08-21T12:18:44.557Z,6.40
2022-08-21T12:21:22.660Z,11.02
2022-08-21T12:24:04.772Z,7.93
2022-08-21T12:26:36.445Z,8.68
2022-08-21T12:29:18.123Z,8.90
2022-08-21T12:32:11.088Z,8.15
2022-08-21T12:34:46.215Z,8.02
2022-08-21T12:37:23.750Z,6.95
2022-08-21T12:39:54.187Z,7.88
2022-08-21T12:42:38.860Z,8.77
2022-08-21T12:45:18.778Z,6.07
2022-08-21T12:47:57.165Z,7.18
2022-08-21T12:50:39.544Z,7.43
2022-08-21T12:53:20.224Z,10.65
2022-08-21T12:55:49.380Z,5.75
2022-08-21T12:58:25.544Z,7.68
2022-08-21T13:01:18.574Z,7.72
2022-08-21T13:03:47.756Z,7.30
2022-08-21T13:06:29.380Z,6.35
2022-08-21T13:09:08.071Z,6.25
2022-08-21T13:11:36.628Z,5.80
2022-08-21T13:16:46.269Z,5.72
2022-08-21T13:19:23.915Z,7.47
2022-08-21T13:21:53.835Z,8.00
2022-08-21T13:24:46.185Z,6.45
2022-08-21T13:27:42.128Z,7.55
2022-08-21T13:30:19.609Z,7.82
2022-08-21T13:32:52.759Z,9.00
2022-08-21T13:35:46.446Z,8.05
2022-08-21T13:38:14.631Z,9.68
2022-08-21T13:40:50.443Z,8.63
2022-08-21T13:43:22.545Z,8.75
2022-08-21T13:45:53.525Z,6.88
2022-08-21T13:48:23.366Z,8.90
2022-08-21T13:50:51.080Z,7.70
2022-08-21T13:53:28.175Z,10.95
2022-08-21T13:56:00.376Z,9.27
2022-08-21T13:58:55.868Z,8.90
2022-08-21T14:01:28.848Z,9.23
2022-08-21T14:06:34.246Z,8.57
2022-08-21T14:09:09.566Z,6.82
2022-08-21T14:11:38.007Z,9.90
2022-08-21T14:14:36.589Z,7.25
2022-08-21T14:17:24.421Z,8.73
2022-08-21T14:19:52.922Z,7.10
2022-08-21T14:22:40.450Z,8.98
2022-08-21T14:25:28.173Z,6.18
2022-08-21T14:27:57.718Z,6.70
2022-08-21T14:30:37.552Z,9.20
2022-08-21T14:33:10.314Z,10.00
2022-08-21T14:35:38.081Z,8.48
2022-08-21T14:38:17.518Z,8.93
2022-08-21T14:40:51.018Z,9.20
2022-08-21T14:43:20.334Z,10.65
2022-08-21T14:45:48.667Z,7.32
2022-08-21T14:48:16.319Z,7.65
2022-08-21T14:50:43.989Z,10.75
2022-08-21T14:53:11.873Z,10.38
2022-08-21T14:55:59.040Z,7.95
2022-08-21T14:58:26.883Z,8.77
2022-08-21T15:00:56.379Z,7.28
2022-08-21T15:03:23.976Z,9.75
2022-08-21T15:05:52.251Z,10.45
2022-08-21T15:08:20.106Z,10.18
2022-08-21T15:11:10.477Z,10.38
2022-08-21T15:13:37.654Z,7.18
2022-08-21T15:16:05.253Z,7.82
2022-08-21T15:18:32.762Z,12.02
2022-08-21T15:21:00.581Z,11.63
2022-08-21T15:23:28.169Z,11.07
2022-08-21T15:25:59.791Z,8.30
2022-08-21T15:28:31.741Z,8.38
2022-08-21T15:31:02.090Z,12.35
2022-08-21T15:33:30.180Z,11.82
2022-08-21T15:35:58.033Z,10.10
2022-08-21T15:38:26.179Z,9.13
2022-08-21T15:40:54.132Z,14.15
2022-08-21T15:43:29.962Z,9.98
2022-08-21T15:46:00.959Z,8.80
2022-08-21T15:48:29.501Z,8.00
2022-08-21T15:50:57.111Z,9.15
2022-08-21T15:53:24.569Z,10.05
2022-08-21T15:55:52.187Z,11.45
2022-08-21T15:58:21.167Z,13.93
2022-08-21T16:00:49.083Z,18.83
2022-08-21T16:03:19.149Z,14.88
2022-08-21T16:05:49.594Z,13.70
2022-08-21T16:08:18.192Z,16.55
2022-08-21T16:10:51.770Z,12.30
2022-08-21T16:13:40.032Z,14.45
2022-08-21T16:16:30.985Z,13.32
2022-08-21T16:19:36.680Z,14.57
2022-08-21T16:22:19.956Z,12.77
2022-08-21T16:25:09.934Z,13.77
2022-08-21T16:28:01.922Z,12.38
2022-08-21T16:31:09.690Z,11.00
2022-08-21T16:37:26.948Z,11.98
2022-08-21T16:43:13.744Z,13.07
2022-08-21T16:45:43.465Z,11.00
2022-08-21T16:48:11.229Z,11.20
2022-08-21T16:50:40.234Z,14.60
2022-08-21T16:53:08.155Z,10.27
2022-08-21T16:55:36.919Z,13.40
2022-08-21T16:58:13.762Z,11.85
2022-08-21T17:00:41.555Z,10.05
2022-08-21T17:03:16.825Z,8.98
2022-08-21T17:05:45.305Z,11.77
2022-08-21T17:08:12.846Z,14.05
2022-08-21T17:10:44.393Z,9.50
2022-08-21T17:13:12.745Z,11.02
2022-08-21T17:15:40.700Z,14.00
2022-08-21T17:18:18.587Z,11.45
2022-08-21T17:20:46.259Z,15.63
2022-08-21T17:23:13.976Z,12.95
2022-08-21T17:25:44.772Z,11.32
2022-08-21T17:28:19.790Z,12.50
2022-08-21T17:30:47.645Z,12.90
2022-08-21T17:33:18.139Z,13.65
2022-08-21T17:35:46.096Z,16.50
2022-08-21T17:38:14.845Z,14.75
2022-08-21T17:40:43.452Z,11.38
2022-08-21T17:43:13.964Z,14.80
2022-08-21T17:45:44.168Z,12.93
2022-08-21T17:48:11.897Z,13.98
2022-08-21T17:50:40.217Z,11.43
2022-08-21T17:53:07.772Z,14.13
2022-08-21T17:55:35.725Z,14.02
2022-08-21T17:58:04.483Z,18.73
2022-08-21T18:00:32.702Z,15.00
2022-08-21T18:03:09.277Z,16.58
2022-08-21T18:05:36.793Z,16.80
2022-08-21T18:08:04.244Z,14.38
2022-08-21T18:10:32.357Z,20.40
2022-08-21T18:13:04.628Z,17.05
2022-08-21T18:15:33.920Z,18.48
2022-08-21T18:18:02.655Z,15.98
2022-08-21T18:20:30.109Z,18.05
2022-08-21T18:22:57.745Z,18.88
2022-08-21T18:25:25.366Z,20.15
2022-08-21T18:27:53.271Z,17.38
2022-08-21T18:30:22.903Z,24.63
2022-08-21T18:32:52.677Z,15.88
2022-08-21T18:35:20.181Z,19.10
2022-08-21T18:37:47.812Z,18.15
2022-08-21T18:40:16.091Z,20.05
2022-08-21T18:42:58.491Z,18.23
2022-08-21T18:45:26.405Z,19.13
2022-08-21T18:47:56.443Z,21.80
2022-08-21T18:50:27.857Z,22.75
2022-08-21T18:52:57.137Z,21.27
2022-08-21T18:55:25.348Z,21.20
2022-08-21T18:57:55.509Z,22.15
2022-08-21T19:00:26.900Z,21.23
2022-08-21T19:02:54.659Z,25.90
2022-08-21T19:05:24.471Z,22.50
2022-08-21T19:07:54.078Z,22.52
2022-08-21T19:10:27.702Z,24.85
2022-08-21T19:12:59.847Z,22.80
2022-08-21T19:15:28.816Z,25.45
2022-08-21T19:17:58.205Z,29.23
2022-08-21T19:23:29.197Z,23.92
2022-08-21T19:26:01.124Z,21.52
2022-08-21T19:28:31.095Z,23.33
2022-08-21T19:31:06.904Z,24.70
2022-08-21T19:33:41.752Z,21.13
2022-08-21T19:36:12.658Z,26.58
2022-08-21T19:38:40.877Z,26.17
2022-08-21T19:41:10.952Z,30.40
2022-08-21T19:43:44.200Z,25.75
2022-08-21T19:46:15.060Z,26.88
2022-08-21T19:48:42.646Z,29.48
2022-08-21T19:51:14.357Z,29.25
2022-08-21T19:53:41.847Z,31.63
2022-08-21T19:56:14.922Z,26.50
2022-08-21T19:58:43.525Z,25.90
2022-08-21T20:01:16.722Z,25.83
2022-08-21T20:03:53.961Z,30.42
2022-08-21T20:06:24.133Z,31.05
2022-08-21T20:09:10.668Z,30.17
2022-08-21T20:11:42.700Z,29.90
2022-08-21T20:14:12.819Z,30.42
2022-08-21T20:19:28.808Z,28.33
2022-08-21T20:21:58.774Z,28.40
2022-08-21T20:24:27.421Z,30.63
2022-08-21T20:26:55.366Z,25.67
2022-08-21T20:32:12.309Z,24.25
2022-08-21T20:34:59.428Z,27.70
2022-08-21T20:37:37.205Z,24.42
2022-08-21T20:40:11.197Z,27.40
2022-08-21T20:42:47.690Z,27.13
2022-08-21T20:45:24.725Z,28.17
2022-08-21T20:47:58.473Z,30.20
2022-08-21T20:50:29.178Z,26.17
2022-08-21T20:53:05.144Z,23.92
2022-08-21T20:55:35.785Z,26.58
2022-08-21T20:58:08.839Z,21.58
2022-08-21T21:00:43.774Z,27.00
2022-08-21T21:03:30.352Z,23.25
2022-08-21T21:06:31.449Z,24.65
2022-08-21T21:09:11.904Z,25.80
2022-08-21T21:11:51.980Z,26.60
2022-08-21T21:14:44.938Z,27.17
2022-08-21T21:17:38.536Z,31.17
2022-08-21T21:20:21.439Z,28.80
2022-08-21T21:23:02.959Z,27.73
2022-08-21T21:25:43.490Z,26.95
2022-08-21T21:28:16.970Z,26.35
2022-08-21T21:30:55.569Z,26.25
2022-08-21T21:33:35.022Z,25.58
2022-08-21T21:36:22.683Z,25.40
2022-08-21T21:38:59.353Z,23.38
2022-08-21T21:41:34.372Z,27.20
2022-08-21T21:44:49.585Z,22.80
2022-08-21T21:47:41.265Z,26.85
2022-08-21T21:50:26.954Z,23.15
2022-08-21T21:53:26.598Z,24.55
2022-08-21T21:56:09.582Z,21.92
2022-08-21T22:01:11.104Z,28.65
2022-08-21T22:03:58.785Z,29.33
2022-08-21T22:07:06.040Z,27.00
2022-08-21T22:09:45.715Z,29.35
2022-08-21T22:12:19.178Z,21.92
2022-08-21T22:14:47.777Z,27.27
2022-08-21T22:17:51.023Z,29.00
2022-08-21T22:20:32.034Z,26.35
2022-08-21T22:23:01.979Z,24.13
2022-08-21T22:25:40.350Z,25.48
2022-08-21T22:28:11.794Z,22.77
2022-08-21T22:30:50.558Z,24.50
2022-08-21T22:33:22.410Z,24.40
2022-08-21T22:35:53.588Z,22.02
2022-08-21T22:38:36.345Z,22.20
2022-08-21T22:41:11.251Z,22.40
2022-08-21T22:43:58.273Z,21.42
2022-08-21T22:47:06.071Z,23.58
2022-08-21T22:49:44.334Z,21.58
2022-08-21T22:52:27.645Z,26.00
2022-08-21T22:54:59.976Z,25.58
2022-08-21T22:57:36.068Z,23.85
2022-08-21T23:00:34.829Z,22.95
2022-08-21T23:03:02.954Z,25.02
2022-08-21T23:05:31.069Z,26.45
2022-08-21T23:08:30.873Z,25.73
2022-08-21T23:11:05.574Z,24.90
2022-08-21T23:13:42.256Z,28.25
2022-08-21T23:16:47.237Z,26.80
2022-08-21T23:19:38.128Z,23.88
2022-08-21T23:22:24.131Z,27.13
2022-08-21T23:25:17.465Z,29.60
2022-08-21T23:28:03.811Z,24.30
2022-08-21T23:30:49.477Z,22.02
2022-08-21T23:33:42.831Z,22.42
2022-08-21T23:36:49.662Z,21.92
2022-08-21T23:39:35.623Z,23.33
2022-08-21T23:42:45.642Z,18.38
2022-08-21T23:45:37.584Z,19.63
2022-08-21T23:48:36.613Z,19.15
2022-08-21T23:51:13.245Z,19.40
2022-08-21T23:54:16.361Z,21.42
2022-08-21T23:56:57.555Z,15.77
2022-08-21T23:59:57.672Z,18.88
